createdAt,value
2017-06-12T00:00:11.476Z,1010.75
2017-06-12T00:01:20.689Z,1010.77
2017-06-12T00:02:29.627Z,1010.78
2017-06-12T00:03:38.514Z,1010.81
2017-06-12T00:04:47.402Z,1010.83
2017-06-12T00:05:56.619Z,1010.88
2017-06-12T00:07:05.517Z,1010.9
2017-06-12T00:08:14.711Z,1010.92
2017-06-12T00:09:23.596Z,1010.86
2017-06-12T00:10:32.810Z,1010.83
2017-06-12T00:11:41.703Z,1010.77
2017-06-12T00:12:50.924Z,1010.73
2017-06-12T00:14:00.441Z,1010.74
2017-06-12T00:15:09.331Z,1010.76
2017-06-12T00:16:18.871Z,1010.78
2017-06-12T00:17:27.761Z,1010.79
2017-06-12T00:18:36.656Z,1010.82
2017-06-12T00:19:45.553Z,1010.82
2017-06-12T00:20:54.442Z,1010.81
2017-06-12T00:22:03.328Z,1010.85
2017-06-12T00:23:13.195Z,1010.82
2017-06-12T00:24:22.409Z,1010.83
2017-06-12T00:25:31.768Z,1010.77
2017-06-12T00:26:40.980Z,1010.77
2017-06-12T00:27:49.872Z,1010.71
2017-06-12T00:28:59.420Z,1010.76
2017-06-12T00:30:08.629Z,1010.84
2017-06-12T00:31:17.568Z,1010.84
2017-06-12T00:32:26.459Z,1010.79
2017-06-12T00:33:35.352Z,1010.78
2017-06-12T00:34:44.240Z,1010.79
2017-06-12T00:35:53.127Z,1010.86
2017-06-12T00:37:02.718Z,1010.88
2017-06-12T00:38:11.609Z,1010.87
2017-06-12T00:39:20.496Z,1010.86
2017-06-12T00:40:29.385Z,1010.86
2017-06-12T00:41:38.601Z,1010.82
2017-06-12T00:42:47.794Z,1010.81
2017-06-12T00:43:57.010Z,1010.77
2017-06-12T00:45:05.897Z,1010.74
2017-06-12T00:46:14.787Z,1010.73
2017-06-12T00:47:23.681Z,1010.73
2017-06-12T00:48:32.618Z,1010.7
2017-06-12T00:49:42.154Z,1010.71
2017-06-12T00:50:51.043Z,1010.71
2017-06-12T00:52:00.286Z,1010.71
2017-06-12T00:53:09.175Z,1010.78
2017-06-12T00:54:18.166Z,1010.8
2017-06-12T00:55:27.059Z,1010.79
2017-06-12T00:56:35.952Z,1010.79
2017-06-12T00:57:44.839Z,1010.84
2017-06-12T00:58:54.051Z,1010.83
2017-06-12T01:00:03.370Z,1010.81
2017-06-12T01:01:12.260Z,1010.77
2017-06-12T01:02:21.152Z,1010.72
2017-06-12T01:03:30.044Z,1010.61
2017-06-12T01:04:39.910Z,1010.7
2017-06-12T01:05:48.799Z,1010.71
2017-06-12T01:06:57.690Z,1010.73
2017-06-12T01:08:06.575Z,1010.65
2017-06-12T01:09:15.788Z,1010.55
2017-06-12T01:10:24.671Z,1010.51
2017-06-12T01:11:33.863Z,1010.57
2017-06-12T01:12:43.076Z,1010.62
2017-06-12T01:13:51.965Z,1010.64
2017-06-12T01:15:01.181Z,1010.72
2017-06-12T01:16:10.071Z,1010.81
2017-06-12T01:17:19.112Z,1010.87
2017-06-12T01:18:28.326Z,1010.79
2017-06-12T01:19:37.538Z,1010.76
2017-06-12T01:20:46.429Z,1010.75
2017-06-12T01:21:55.322Z,1010.74
2017-06-12T01:23:04.360Z,1010.78
2017-06-12T01:24:13.244Z,1010.76
2017-06-12T01:25:22.782Z,1010.73
2017-06-12T01:26:31.674Z,1010.71
2017-06-12T01:27:40.562Z,1010.71
2017-06-12T01:28:49.601Z,1010.73
2017-06-12T01:29:58.489Z,1010.8
2017-06-12T01:31:07.388Z,1010.76
2017-06-12T01:32:16.277Z,1010.74
2017-06-12T01:33:25.492Z,1010.73
2017-06-12T01:34:34.807Z,1010.77
2017-06-12T01:35:44.024Z,1010.81
2017-06-12T01:36:53.242Z,1010.83
2017-06-12T01:38:02.130Z,1010.78
2017-06-12T01:39:11.993Z,1010.75
2017-06-12T01:40:20.939Z,1010.73
2017-06-12T01:41:29.832Z,1010.73
2017-06-12T01:42:38.721Z,1010.78
2017-06-12T01:43:47.625Z,1010.81
2017-06-12T01:44:56.520Z,1010.79
2017-06-12T01:46:05.611Z,1010.8
2017-06-12T01:47:14.826Z,1010.75
2017-06-12T01:48:24.364Z,1010.73
2017-06-12T01:49:33.250Z,1010.77
2017-06-12T01:50:42.141Z,1010.83
2017-06-12T01:51:51.190Z,1010.77
2017-06-12T01:53:00.079Z,1010.78
2017-06-12T01:54:08.965Z,1010.82
2017-06-12T01:55:17.859Z,1010.8
2017-06-12T01:56:27.070Z,1010.86
2017-06-12T01:57:36.437Z,1010.86
2017-06-12T01:58:45.650Z,1010.85
2017-06-12T01:59:54.537Z,1010.91
2017-06-12T02:01:03.426Z,1010.88
2017-06-12T02:02:12.645Z,1010.85
2017-06-12T02:03:21.906Z,1010.87
2017-06-12T02:04:31.114Z,1010.81
2017-06-12T02:05:39.999Z,1010.82
2017-06-12T02:06:48.892Z,1010.86
2017-06-12T02:07:58.428Z,1010.89
2017-06-12T02:09:07.866Z,1010.9
2017-06-12T02:10:16.755Z,1010.96
2017-06-12T02:11:25.970Z,1010.91
2017-06-12T02:12:34.864Z,1010.92
2017-06-12T02:13:44.402Z,1010.9
2017-06-12T02:14:53.540Z,1010.91
2017-06-12T02:16:03.078Z,1010.98
2017-06-12T02:17:12.290Z,1010.94
2017-06-12T02:18:21.825Z,1010.96
2017-06-12T02:19:30.717Z,1010.94
2017-06-12T02:20:39.931Z,1010.92
2017-06-12T02:21:48.820Z,1010.95
2017-06-12T02:22:57.707Z,1010.97
2017-06-12T02:24:06.599Z,1010.89
2017-06-12T02:25:15.811Z,1010.93
2017-06-12T02:26:24.999Z,1010.97
2017-06-12T02:27:33.887Z,1011.01
2017-06-12T02:28:43.096Z,1010.96
2017-06-12T02:29:51.981Z,1010.98
2017-06-12T02:31:01.203Z,1010.99
2017-06-12T02:32:10.718Z,1010.99
2017-06-12T02:33:19.607Z,1011.03
2017-06-12T02:34:28.852Z,1011.07
2017-06-12T02:35:38.064Z,1011.06
2017-06-12T02:36:47.277Z,1011.08
2017-06-12T02:37:56.588Z,1011.06
2017-06-12T02:39:05.479Z,1010.99
2017-06-12T02:40:14.693Z,1010.96
2017-06-12T02:41:23.585Z,1011.01
2017-06-12T02:42:32.799Z,1011.06
2017-06-12T02:43:41.737Z,1011.05
2017-06-12T02:44:50.954Z,1010.99
2017-06-12T02:46:00.166Z,1011
2017-06-12T02:47:09.065Z,1010.99
2017-06-12T02:48:18.277Z,1011
2017-06-12T02:49:27.164Z,1010.99
2017-06-12T02:50:36.051Z,1010.98
2017-06-12T02:51:45.264Z,1010.99
2017-06-12T02:52:54.155Z,1011
2017-06-12T02:54:03.368Z,1011
2017-06-12T02:55:12.306Z,1011.02
2017-06-12T02:56:21.517Z,1011.03
2017-06-12T02:57:30.728Z,1011.02
2017-06-12T02:58:39.615Z,1011.04
2017-06-12T02:59:48.502Z,1011.05
2017-06-12T03:00:57.445Z,1011.02
2017-06-12T03:02:06.661Z,1011.05
2017-06-12T03:03:15.874Z,1011.06
2017-06-12T03:04:24.767Z,1011.02
2017-06-12T03:05:33.978Z,1011.03
2017-06-12T03:06:43.341Z,1011.03
2017-06-12T03:07:52.227Z,1011.01
2017-06-12T03:09:01.116Z,1011.04
2017-06-12T03:10:10.006Z,1011
2017-06-12T03:11:19.225Z,1011.01
2017-06-12T03:12:28.265Z,1010.94
2017-06-12T03:13:37.152Z,1010.94
2017-06-12T03:14:46.362Z,1010.97
2017-06-12T03:15:55.249Z,1010.98
2017-06-12T03:17:04.467Z,1010.98
2017-06-12T03:18:13.503Z,1010.95
2017-06-12T03:19:22.390Z,1010.92
2017-06-12T03:20:31.277Z,1011
2017-06-12T03:21:40.490Z,1011
2017-06-12T03:22:50.030Z,1011.04
2017-06-12T03:23:59.394Z,1011.05
2017-06-12T03:25:08.933Z,1011.08
2017-06-12T03:26:17.823Z,1011.1
2017-06-12T03:27:26.715Z,1011.06
2017-06-12T03:28:35.604Z,1011.14
2017-06-12T03:29:44.493Z,1011.07
2017-06-12T03:30:53.380Z,1011.13
2017-06-12T03:32:02.269Z,1011.06
2017-06-12T03:33:11.481Z,1011.1
2017-06-12T03:34:20.372Z,1011.08
2017-06-12T03:35:29.558Z,1011.16
2017-06-12T03:36:38.444Z,1011.16
2017-06-12T03:37:47.331Z,1011.16
2017-06-12T03:38:56.870Z,1011.2
2017-06-12T03:40:05.762Z,1011.21
2017-06-12T03:41:14.653Z,1011.22
2017-06-12T03:42:23.541Z,1011.19
2017-06-12T03:43:32.753Z,1011.17
2017-06-12T03:44:41.964Z,1011.22
2017-06-12T03:45:51.182Z,1011.19
2017-06-12T03:47:00.274Z,1011.17
2017-06-12T03:48:09.512Z,1011.2
2017-06-12T03:49:18.406Z,1011.21
2017-06-12T03:50:27.298Z,1011.22
2017-06-12T03:51:36.187Z,1011.24
2017-06-12T03:52:45.402Z,1011.28
2017-06-12T03:53:54.288Z,1011.28
2017-06-12T03:55:03.499Z,1011.31
2017-06-12T03:56:12.387Z,1011.27
2017-06-12T03:57:21.598Z,1011.28
2017-06-12T03:58:30.871Z,1011.24
2017-06-12T03:59:40.413Z,1011.27
2017-06-12T04:00:49.631Z,1011.29
2017-06-12T04:01:58.845Z,1011.22
2017-06-12T04:03:07.731Z,1011.26
2017-06-12T04:04:16.765Z,1011.27
2017-06-12T04:05:25.978Z,1011.26
2017-06-12T04:06:34.864Z,1011.3
2017-06-12T04:07:43.751Z,1011.31
2017-06-12T04:08:52.645Z,1011.32
2017-06-12T04:10:01.696Z,1011.28
2017-06-12T04:11:10.913Z,1011.33
2017-06-12T04:12:20.128Z,1011.29
2017-06-12T04:13:29.013Z,1011.35
2017-06-12T04:14:37.901Z,1011.32
2017-06-12T04:15:46.836Z,1011.31
2017-06-12T04:16:55.720Z,1011.33
2017-06-12T04:18:04.606Z,1011.36
2017-06-12T04:19:13.820Z,1011.35
2017-06-12T04:20:23.358Z,1011.36
2017-06-12T04:21:32.547Z,1011.37
2017-06-12T04:22:41.757Z,1011.34
2017-06-12T04:23:50.642Z,1011.38
2017-06-12T04:24:59.533Z,1011.33
2017-06-12T04:26:08.428Z,1011.34
2017-06-12T04:27:17.315Z,1011.39
2017-06-12T04:28:26.198Z,1011.36
2017-06-12T04:29:35.087Z,1011.32
2017-06-12T04:30:44.302Z,1011.27
2017-06-12T04:31:53.187Z,1011.27
2017-06-12T04:33:02.126Z,1011.22
2017-06-12T04:34:11.012Z,1011.19
2017-06-12T04:35:20.221Z,1011.18
2017-06-12T04:36:29.109Z,1011.2
2017-06-12T04:37:38.649Z,1011.28
2017-06-12T04:38:47.632Z,1011.25
2017-06-12T04:39:56.516Z,1011.23
2017-06-12T04:41:05.727Z,1011.18
2017-06-12T04:42:14.940Z,1011.24
2017-06-12T04:43:23.829Z,1011.28
2017-06-12T04:44:32.720Z,1011.24
2017-06-12T04:45:41.934Z,1011.24
2017-06-12T04:46:51.151Z,1011.2
2017-06-12T04:48:00.037Z,1011.21
2017-06-12T04:49:09.589Z,1011.2
2017-06-12T04:50:18.502Z,1011.23
2017-06-12T04:51:27.388Z,1011.26
2017-06-12T04:52:36.282Z,1011.23
2017-06-12T04:53:45.173Z,1011.31
2017-06-12T04:54:54.063Z,1011.31
2017-06-12T04:56:03.275Z,1011.25
2017-06-12T04:57:12.161Z,1011.27
2017-06-12T04:58:21.373Z,1011.32
2017-06-12T04:59:30.262Z,1011.31
2017-06-12T05:00:39.162Z,1011.3
2017-06-12T05:01:48.603Z,1011.35
2017-06-12T05:02:57.505Z,1011.34
2017-06-12T05:04:06.394Z,1011.32
2017-06-12T05:05:15.611Z,1011.34
2017-06-12T05:06:24.499Z,1011.42
2017-06-12T05:07:33.390Z,1011.44
2017-06-12T05:08:42.304Z,1011.49
2017-06-12T05:09:51.194Z,1011.49
2017-06-12T05:11:00.181Z,1011.49
2017-06-12T05:12:09.071Z,1011.52
2017-06-12T05:13:18.608Z,1011.45
2017-06-12T05:14:27.498Z,1011.47
2017-06-12T05:15:36.714Z,1011.45
2017-06-12T05:16:45.602Z,1011.44
2017-06-12T05:17:54.495Z,1011.41
2017-06-12T05:19:03.709Z,1011.4
2017-06-12T05:20:13.021Z,1011.38
2017-06-12T05:21:21.910Z,1011.43
2017-06-12T05:22:30.800Z,1011.5
2017-06-12T05:23:40.012Z,1011.44
2017-06-12T05:24:49.221Z,1011.49
2017-06-12T05:25:58.263Z,1011.48
2017-06-12T05:27:08.126Z,1011.56
2017-06-12T05:28:17.015Z,1011.47
2017-06-12T05:29:26.233Z,1011.47
2017-06-12T05:30:35.121Z,1011.43
2017-06-12T05:31:44.066Z,1011.41
2017-06-12T05:32:53.935Z,1011.44
2017-06-12T05:34:02.824Z,1011.5
2017-06-12T05:35:11.722Z,1011.52
2017-06-12T05:36:20.613Z,1011.6
2017-06-12T05:37:29.878Z,1011.5
2017-06-12T05:38:39.097Z,1011.57
2017-06-12T05:39:48.633Z,1011.53
2017-06-12T05:40:57.845Z,1011.47
2017-06-12T05:42:06.731Z,1011.49
2017-06-12T05:43:15.771Z,1011.37
2017-06-12T05:44:24.660Z,1011.43
2017-06-12T05:45:33.548Z,1011.45
2017-06-12T05:46:42.438Z,1011.51
2017-06-12T05:47:51.330Z,1011.58
2017-06-12T05:49:00.321Z,1011.62
2017-06-12T05:50:09.212Z,1011.57
2017-06-12T05:51:18.495Z,1011.58
2017-06-12T05:52:27.523Z,1011.62
2017-06-12T05:53:36.741Z,1011.62
2017-06-12T05:54:46.276Z,1011.66
2017-06-12T05:55:55.167Z,1011.65
2017-06-12T05:57:04.387Z,1011.68
2017-06-12T05:58:13.278Z,1011.69
2017-06-12T05:59:22.175Z,1011.7
2017-06-12T06:00:31.180Z,1011.75
2017-06-12T06:01:40.719Z,1011.73
2017-06-12T06:02:49.935Z,1011.79
2017-06-12T06:03:59.152Z,1011.76
2017-06-12T06:05:08.046Z,1011.82
2017-06-12T06:06:17.189Z,1011.78
2017-06-12T06:07:26.081Z,1011.73
2017-06-12T06:08:34.969Z,1011.74
2017-06-12T06:09:44.183Z,1011.71
2017-06-12T06:10:53.073Z,1011.69
2017-06-12T06:12:02.330Z,1011.73
2017-06-12T06:13:11.220Z,1011.71
2017-06-12T06:14:20.110Z,1011.71
2017-06-12T06:15:29.001Z,1011.75
2017-06-12T06:16:37.889Z,1011.73
2017-06-12T06:17:46.876Z,1011.72
2017-06-12T06:18:56.350Z,1011.78
2017-06-12T06:20:05.683Z,1011.72
2017-06-12T06:21:15.459Z,1011.75
2017-06-12T06:22:24.585Z,1011.76
2017-06-12T06:23:33.894Z,1011.75
2017-06-12T06:24:43.495Z,1011.76
2017-06-12T06:25:52.504Z,1011.77
2017-06-12T06:27:01.920Z,1011.82
2017-06-12T06:28:10.975Z,1011.86
2017-06-12T06:29:20.692Z,1011.96
2017-06-12T06:30:29.586Z,1011.93
2017-06-12T06:31:38.527Z,1012.08
2017-06-12T06:32:49.003Z,1011.93
2017-06-12T06:33:57.982Z,1011.9
2017-06-12T06:35:07.105Z,1012.06
2017-06-12T06:36:16.323Z,1011.9
2017-06-12T06:37:25.243Z,1011.98
2017-06-12T06:38:34.165Z,1011.91
2017-06-12T06:39:43.095Z,1011.86
2017-06-12T06:40:52.590Z,1011.95
2017-06-12T06:42:01.828Z,1011.94
2017-06-12T06:43:11.043Z,1011.93
2017-06-12T06:44:19.933Z,1011.93
2017-06-12T06:45:28.826Z,1011.95
2017-06-12T06:46:38.543Z,1011.89
2017-06-12T06:47:47.532Z,1011.9
2017-06-12T06:48:56.522Z,1011.93
2017-06-12T06:50:06.280Z,1011.99
2017-06-12T06:51:15.176Z,1012.03
2017-06-12T06:52:24.067Z,1011.98
2017-06-12T06:53:32.956Z,1012.04
2017-06-12T06:54:42.382Z,1012.06
2017-06-12T06:55:51.603Z,1012.04
2017-06-12T06:57:00.886Z,1012.06
2017-06-12T06:58:09.890Z,1012.09
2017-06-12T06:59:18.780Z,1012.13
2017-06-12T07:00:28.059Z,1012.07
2017-06-12T07:01:37.291Z,1012.15
2017-06-12T07:02:46.211Z,1012.07
2017-06-12T07:03:56.012Z,1012.12
2017-06-12T07:05:04.910Z,1012.13
2017-06-12T07:06:13.804Z,1012.27
2017-06-12T07:07:22.705Z,1012.15
2017-06-12T07:08:31.595Z,1012.12
2017-06-12T07:09:40.891Z,1012.08
2017-06-12T07:10:49.815Z,1012.08
2017-06-12T07:11:59.117Z,1012.09
2017-06-12T07:13:08.011Z,1012.07
2017-06-12T07:14:16.902Z,1012.09
2017-06-12T07:15:25.942Z,1012.1
2017-06-12T07:16:34.850Z,1012.12
2017-06-12T07:17:43.753Z,1012.16
2017-06-12T07:18:52.647Z,1012.18
2017-06-12T07:20:02.187Z,1012.08
2017-06-12T07:21:11.317Z,1012.08
2017-06-12T07:22:20.208Z,1012.12
2017-06-12T07:23:29.425Z,1012.16
2017-06-12T07:24:38.968Z,1012.07
2017-06-12T07:25:48.184Z,1012.13
2017-06-12T07:26:57.375Z,1012.09
2017-06-12T07:28:06.266Z,1012.03
2017-06-12T07:29:15.157Z,1012.1
2017-06-12T07:30:24.377Z,1012.08
2017-06-12T07:31:33.270Z,1012.04
2017-06-12T07:32:42.736Z,1012.03
2017-06-12T07:33:51.649Z,1012.1
2017-06-12T07:35:00.544Z,1012.14
2017-06-12T07:36:10.703Z,1012.04
2017-06-12T07:37:19.596Z,1012
2017-06-12T07:38:28.640Z,1012.06
2017-06-12T07:39:37.858Z,1012.05
2017-06-12T07:40:47.076Z,1012.05
2017-06-12T07:41:55.972Z,1012.02
2017-06-12T07:43:05.200Z,1012.08
2017-06-12T07:44:14.089Z,1012.02
2017-06-12T07:45:22.977Z,1012.05
2017-06-12T07:46:31.871Z,1012.16
2017-06-12T07:47:40.762Z,1012.18
2017-06-12T07:48:49.980Z,1012.15
2017-06-12T07:49:58.922Z,1012.18
2017-06-12T07:51:07.882Z,1012.14
2017-06-12T07:52:17.107Z,1012.19
2017-06-12T07:53:26.001Z,1012.21
2017-06-12T07:54:34.892Z,1012.3
2017-06-12T07:55:44.258Z,1012.29
2017-06-12T07:56:53.148Z,1012.37
2017-06-12T07:58:02.906Z,1012.22
2017-06-12T07:59:11.805Z,1012.24
2017-06-12T08:00:20.705Z,1012.2
2017-06-12T08:01:30.069Z,1012.28
2017-06-12T08:02:39.004Z,1012.38
2017-06-12T08:03:47.932Z,1012.27
2017-06-12T08:04:57.146Z,1012.26
2017-06-12T08:06:06.363Z,1012.26
2017-06-12T08:07:15.640Z,1012.26
2017-06-12T08:08:24.540Z,1012.19
2017-06-12T08:09:33.759Z,1012.21
2017-06-12T08:10:42.648Z,1012.3
2017-06-12T08:11:51.541Z,1012.31
2017-06-12T08:13:00.480Z,1012.2
2017-06-12T08:14:09.372Z,1012.27
2017-06-12T08:15:18.912Z,1012.23
2017-06-12T08:16:28.129Z,1012.34
2017-06-12T08:17:37.020Z,1012.28
2017-06-12T08:18:46.335Z,1012.22
2017-06-12T08:19:55.227Z,1012.38
2017-06-12T08:21:04.119Z,1012.36
2017-06-12T08:22:13.010Z,1012.43
2017-06-12T08:23:22.565Z,1012.37
2017-06-12T08:24:31.707Z,1012.38
2017-06-12T08:25:40.594Z,1012.34
2017-06-12T08:26:50.134Z,1012.34
2017-06-12T08:27:59.024Z,1012.44
2017-06-12T08:29:07.917Z,1012.38
2017-06-12T08:30:17.286Z,1012.33
2017-06-12T08:31:26.180Z,1012.4
2017-06-12T08:32:35.401Z,1012.32
2017-06-12T08:33:44.945Z,1012.34
2017-06-12T08:34:54.160Z,1012.31
2017-06-12T08:36:03.778Z,1012.44
2017-06-12T08:37:12.992Z,1012.37
2017-06-12T08:38:22.210Z,1012.58
2017-06-12T08:39:31.104Z,1012.46
2017-06-12T08:40:40.649Z,1012.47
2017-06-12T08:41:49.588Z,1012.53
2017-06-12T08:42:58.482Z,1012.49
2017-06-12T08:44:07.402Z,1012.46
2017-06-12T08:45:16.297Z,1012.51
2017-06-12T08:46:25.189Z,1012.55
2017-06-12T08:47:34.233Z,1012.6
2017-06-12T08:48:43.127Z,1012.49
2017-06-12T08:49:52.338Z,1012.61
2017-06-12T08:51:01.878Z,1012.56
2017-06-12T08:52:10.771Z,1012.59
2017-06-12T08:53:20.042Z,1012.55
2017-06-12T08:54:28.936Z,1012.63
2017-06-12T08:55:38.155Z,1012.7
2017-06-12T08:56:47.048Z,1012.64
2017-06-12T08:57:55.945Z,1012.76
2017-06-12T08:59:04.886Z,1012.71
2017-06-12T09:00:14.100Z,1012.77
2017-06-12T09:01:22.995Z,1012.74
2017-06-12T09:02:32.210Z,1012.79
2017-06-12T09:03:41.425Z,1012.82
2017-06-12T09:04:50.316Z,1012.77
2017-06-12T09:05:59.211Z,1012.78
2017-06-12T09:07:08.429Z,1012.78
2017-06-12T09:08:17.644Z,1012.76
2017-06-12T09:09:26.535Z,1012.76
2017-06-12T09:10:35.753Z,1012.81
2017-06-12T09:11:44.647Z,1012.84
2017-06-12T09:12:53.865Z,1012.89
2017-06-12T09:14:02.757Z,1012.9
2017-06-12T09:15:11.655Z,1012.92
2017-06-12T09:16:20.551Z,1012.95
2017-06-12T09:17:29.445Z,1013.05
2017-06-12T09:18:38.335Z,1013.08
2017-06-12T09:19:47.226Z,1013.05
2017-06-12T09:20:56.442Z,1013.16
2017-06-12T09:22:05.861Z,1013.12
2017-06-12T09:23:15.081Z,1013.11
2017-06-12T09:24:23.976Z,1013.09
2017-06-12T09:25:33.518Z,1013
2017-06-12T09:26:42.743Z,1013.05
2017-06-12T09:27:51.785Z,1013.02
2017-06-12T09:29:00.680Z,1013.03
2017-06-12T09:30:09.579Z,1013.03
2017-06-12T09:31:18.474Z,1013.01
2017-06-12T09:32:27.368Z,1013.04
2017-06-12T09:33:36.640Z,1013.05
2017-06-12T09:34:45.894Z,1013.08
2017-06-12T09:35:54.792Z,1012.98
2017-06-12T09:37:04.005Z,1013.06
2017-06-12T09:38:13.223Z,1013.02
2017-06-12T09:39:22.213Z,1013.06
2017-06-12T09:40:31.102Z,1013.02
2017-06-12T09:41:39.989Z,1013.16
2017-06-12T09:42:48.880Z,1013.04
2017-06-12T09:43:57.773Z,1013.02
2017-06-12T09:45:06.823Z,1013
2017-06-12T09:46:16.372Z,1013.14
2017-06-12T09:47:25.267Z,1013.12
2017-06-12T09:48:34.168Z,1013.1
2017-06-12T09:49:43.063Z,1013.06
2017-06-12T09:50:52.488Z,1013.14
2017-06-12T09:52:01.381Z,1013.14
2017-06-12T09:53:11.253Z,1013.23
2017-06-12T09:54:20.147Z,1013.23
2017-06-12T09:55:29.047Z,1013.1
2017-06-12T09:56:38.045Z,1013.1
2017-06-12T09:57:47.259Z,1013.16
2017-06-12T09:58:56.477Z,1013.2
2017-06-12T10:00:05.379Z,1013.22
2017-06-12T10:01:14.274Z,1013.21
2017-06-12T10:02:23.324Z,1013.27
2017-06-12T10:03:32.222Z,1013.2
2017-06-12T10:04:41.441Z,1013.26
2017-06-12T10:05:50.989Z,1013.31
2017-06-12T10:07:00.223Z,1013.32
2017-06-12T10:08:09.420Z,1013.42
2017-06-12T10:09:18.310Z,1013.43
2017-06-12T10:10:27.202Z,1013.44
2017-06-12T10:11:36.095Z,1013.39
2017-06-12T10:12:44.998Z,1013.45
2017-06-12T10:13:54.044Z,1013.39
2017-06-12T10:15:02.940Z,1013.52
2017-06-12T10:16:12.156Z,1013.4
2017-06-12T10:17:21.373Z,1013.45
2017-06-12T10:18:30.271Z,1013.45
2017-06-12T10:19:39.213Z,1013.4
2017-06-12T10:20:48.107Z,1013.38
2017-06-12T10:21:57.003Z,1013.44
2017-06-12T10:23:05.926Z,1013.4
2017-06-12T10:24:14.817Z,1013.38
2017-06-12T10:25:23.865Z,1013.36
2017-06-12T10:26:32.761Z,1013.48
2017-06-12T10:27:41.654Z,1013.47
2017-06-12T10:28:51.201Z,1013.51
2017-06-12T10:30:00.418Z,1013.49
2017-06-12T10:31:09.414Z,1013.76
2017-06-12T10:32:18.310Z,1013.52
2017-06-12T10:33:27.201Z,1013.56
2017-06-12T10:34:36.093Z,1013.52
2017-06-12T10:35:44.988Z,1013.53
2017-06-12T10:36:54.309Z,1013.58
2017-06-12T10:38:03.526Z,1013.58
2017-06-12T10:39:12.419Z,1013.62
2017-06-12T10:40:21.965Z,1013.59
2017-06-12T10:41:30.856Z,1013.58
2017-06-12T10:42:39.998Z,1013.61
2017-06-12T10:43:49.218Z,1013.61
2017-06-12T10:44:58.110Z,1013.66
2017-06-12T10:46:07.002Z,1013.72
2017-06-12T10:47:15.889Z,1013.68
2017-06-12T10:48:25.479Z,1013.68
2017-06-12T10:49:34.370Z,1013.64
2017-06-12T10:50:43.263Z,1013.62
2017-06-12T10:51:52.162Z,1013.72
2017-06-12T10:53:01.378Z,1013.74
2017-06-12T10:54:10.318Z,1013.7
2017-06-12T10:55:19.209Z,1013.75
2017-06-12T10:56:28.429Z,1013.69
2017-06-12T10:57:37.319Z,1013.62
2017-06-12T10:58:46.533Z,1013.74
2017-06-12T10:59:55.725Z,1013.68
2017-06-12T11:01:04.952Z,1013.7
2017-06-12T11:02:13.853Z,1013.8
2017-06-12T11:03:23.076Z,1013.8
2017-06-12T11:04:31.967Z,1013.77
2017-06-12T11:05:41.556Z,1013.77
2017-06-12T11:06:50.448Z,1013.78
2017-06-12T11:07:59.341Z,1013.8
2017-06-12T11:09:08.559Z,1013.76
2017-06-12T11:10:17.803Z,1013.78
2017-06-12T11:11:26.796Z,1013.84
2017-06-12T11:12:36.015Z,1013.88
2017-06-12T11:13:44.907Z,1013.91
2017-06-12T11:14:53.799Z,1013.93
2017-06-12T11:16:02.693Z,1013.79
2017-06-12T11:17:11.883Z,1013.85
2017-06-12T11:18:21.103Z,1013.85
2017-06-12T11:19:29.997Z,1013.88
2017-06-12T11:20:38.889Z,1013.82
2017-06-12T11:21:48.433Z,1013.84
2017-06-12T11:22:57.701Z,1013.82
2017-06-12T11:24:06.591Z,1013.79
2017-06-12T11:25:15.481Z,1013.76
2017-06-12T11:26:24.372Z,1013.86
2017-06-12T11:27:33.262Z,1013.74
2017-06-12T11:28:42.458Z,1013.79
2017-06-12T11:29:51.675Z,1013.74
2017-06-12T11:31:00.892Z,1013.84
2017-06-12T11:32:09.789Z,1013.73
2017-06-12T11:33:19.012Z,1013.74
2017-06-12T11:34:28.284Z,1013.74
2017-06-12T11:35:37.178Z,1013.76
2017-06-12T11:36:46.722Z,1013.78
2017-06-12T11:37:55.612Z,1013.75
2017-06-12T11:39:04.829Z,1013.65
2017-06-12T11:40:14.033Z,1013.72
2017-06-12T11:41:22.929Z,1013.73
2017-06-12T11:42:32.469Z,1013.77
2017-06-12T11:43:41.689Z,1013.76
2017-06-12T11:44:50.592Z,1013.8
2017-06-12T11:46:00.058Z,1013.84
2017-06-12T11:47:08.966Z,1013.77
2017-06-12T11:48:17.894Z,1013.74
2017-06-12T11:49:27.115Z,1013.73
2017-06-12T11:50:36.072Z,1013.7
2017-06-12T11:51:45.169Z,1013.75
2017-06-12T11:52:54.063Z,1013.72
2017-06-12T11:54:02.957Z,1013.78
2017-06-12T11:55:11.855Z,1013.89
2017-06-12T11:56:20.758Z,1013.89
2017-06-12T11:57:30.458Z,1013.9
2017-06-12T11:58:39.684Z,1013.91
2017-06-12T11:59:48.593Z,1014
2017-06-12T12:00:57.491Z,1014.07
2017-06-12T12:02:06.711Z,1014.09
2017-06-12T12:03:15.808Z,1013.98
2017-06-12T12:04:24.756Z,1014.04
2017-06-12T12:05:33.652Z,1014.07
2017-06-12T12:06:42.917Z,1013.95
2017-06-12T12:07:51.816Z,1014.05
2017-06-12T12:09:00.763Z,1014.09
2017-06-12T12:10:09.862Z,1013.95
2017-06-12T12:11:18.762Z,1014.03
2017-06-12T12:12:27.700Z,1014.05
2017-06-12T12:13:36.609Z,1014.03
2017-06-12T12:14:45.838Z,1014.03
2017-06-12T12:15:55.063Z,1014.15
2017-06-12T12:17:04.312Z,1014.06
2017-06-12T12:18:13.540Z,1014.18
2017-06-12T12:19:23.095Z,1014.25
2017-06-12T12:20:32.352Z,1014.07
2017-06-12T12:21:41.648Z,1014.08
2017-06-12T12:22:50.542Z,1014.17
2017-06-12T12:23:59.766Z,1014.12
2017-06-12T12:25:08.983Z,1014.04
2017-06-12T12:26:18.257Z,1014.08
2017-06-12T12:27:27.153Z,1014.01
2017-06-12T12:28:36.373Z,1014.09
2017-06-12T12:29:45.266Z,1014.14
2017-06-12T12:30:54.198Z,1014.11
2017-06-12T12:32:03.345Z,1014.17
2017-06-12T12:33:12.244Z,1014.06
2017-06-12T12:34:21.792Z,1014.21
2017-06-12T12:35:30.689Z,1014.17
2017-06-12T12:36:39.596Z,1014.15
2017-06-12T12:37:48.704Z,1014.15
2017-06-12T12:38:57.921Z,1014.11
2017-06-12T12:40:06.857Z,1014.11
2017-06-12T12:41:16.113Z,1014.09
2017-06-12T12:42:25.007Z,1014.14
2017-06-12T12:43:33.902Z,1014.14
2017-06-12T12:44:42.800Z,1014.14
2017-06-12T12:45:51.701Z,1014.35
2017-06-12T12:47:00.614Z,1014.3
2017-06-12T12:48:09.866Z,1014.43
2017-06-12T12:49:18.968Z,1014.26
2017-06-12T12:50:27.918Z,1014.27
2017-06-12T12:51:37.146Z,1014.38
2017-06-12T12:52:46.040Z,1014.39
2017-06-12T12:53:54.941Z,1014.29
2017-06-12T12:55:04.414Z,1014.27
2017-06-12T12:56:13.315Z,1014.29
2017-06-12T12:57:22.243Z,1014.29
2017-06-12T12:58:31.466Z,1014.42
2017-06-12T12:59:40.371Z,1014.24
2017-06-12T13:00:49.848Z,1014.25
2017-06-12T13:01:58.751Z,1014.19
2017-06-12T13:03:07.650Z,1014.18
2017-06-12T13:04:16.548Z,1014.18
2017-06-12T13:05:25.454Z,1014.22
2017-06-12T13:06:34.504Z,1014.2
2017-06-12T13:07:43.742Z,1014.17
2017-06-12T13:08:52.646Z,1014.19
2017-06-12T13:10:01.866Z,1014.1
2017-06-12T13:11:10.761Z,1014.13
2017-06-12T13:12:19.757Z,1014.17
2017-06-12T13:13:28.653Z,1014.11
2017-06-12T13:14:37.875Z,1014.16
2017-06-12T13:15:46.777Z,1014.19
2017-06-12T13:16:55.996Z,1014.15
2017-06-12T13:18:05.746Z,1014.16
2017-06-12T13:19:14.965Z,1014.15
2017-06-12T13:20:23.857Z,1014.18
2017-06-12T13:21:32.750Z,1014.14
2017-06-12T13:22:41.651Z,1014.22
2017-06-12T13:23:50.698Z,1014.19
2017-06-12T13:24:59.916Z,1014.18
2017-06-12T13:26:09.140Z,1014.24
2017-06-12T13:27:18.358Z,1014.27
2017-06-12T13:28:27.578Z,1014.26
2017-06-12T13:29:36.620Z,1014.34
2017-06-12T13:30:45.841Z,1014.33
2017-06-12T13:31:54.737Z,1014.38
2017-06-12T13:33:03.632Z,1014.37
2017-06-12T13:34:12.853Z,1014.51
2017-06-12T13:35:22.221Z,1014.55
2017-06-12T13:36:31.446Z,1014.57
2017-06-12T13:37:40.340Z,1014.55
2017-06-12T13:38:49.230Z,1014.66
2017-06-12T13:39:58.117Z,1014.63
2017-06-12T13:41:07.034Z,1014.55
2017-06-12T13:42:16.570Z,1014.68
2017-06-12T13:43:26.004Z,1014.74
2017-06-12T13:44:34.962Z,1014.71
2017-06-12T13:45:43.896Z,1014.68
2017-06-12T13:46:53.177Z,1014.73
2017-06-12T13:48:02.372Z,1014.69
2017-06-12T13:49:11.300Z,1014.74
2017-06-12T13:50:20.535Z,1014.73
2017-06-12T13:51:30.000Z,1014.65
2017-06-12T13:52:39.571Z,1014.64
2017-06-12T13:53:48.512Z,1014.79
2017-06-12T13:54:57.875Z,1014.71
2017-06-12T13:56:06.765Z,1014.77
2017-06-12T13:57:15.652Z,1014.75
2017-06-12T13:58:24.561Z,1014.67